Heth, Arkansas
Current Conditions -  °F | °C
As of 2:53 AM on Saturday 29 Nov 2014 (Local Time) from KAWM Reporting Station
Clear Clear  
Wind Chill: 41°   Ceiling: Unl
Heat Index: 48°   Visibility: 10mi
Dew Point: 36°   Wind: 20mph
Humidity: 63%   Direction: 190°S
Pressure: 30.03"   Gusts: 29mph
Location:  35.08°N, 90.49°W
Report Text: KAWM 290853Z AUTO 19017G25KT 10SM CLR 09/02 A3003 RMK AO2 SLP170 T00890022 56010
Loading
Personal Weather Stations






























Interactive Weather Map New forecast layout! Learn more

10-Day Weather Forecast

Advertisements
Track Severe Weather on mobile